Time,TemperatureF,DewpointF,PressureIn,WindDirection,WindDirectionDegrees,WindSpeedMPH,WindSpeedGustMPH,Humidity,HourlyPrecipIn,Conditions,Clouds,dailyrainin,SoftwareType,DateUTC
2013-06-14 00:00:00,44.8,24.3,29.94,SE,128,7.0,12.1,44,0.00,,,-99.99,FreeWX 2.04,2013-06-14 06:00:00,
2013-06-14 00:10:00,44.1,24.6,29.94,ESE,122,7.0,12.1,46,0.00,,,-99.99,FreeWX 2.04,2013-06-14 06:10:00,
2013-06-14 00:20:00,43.5,25.2,29.94,ESE,112,6.0,13.0,48,0.00,,,-99.99,FreeWX 2.04,2013-06-14 06:20:00,
2013-06-14 00:30:00,43.7,25.3,29.94,SE,125,7.0,15.2,48,0.00,,,-99.99,FreeWX 2.04,2013-06-14 06:30:00,
2013-06-14 00:40:00,43.3,24.4,29.94,ESE,113,7.0,14.8,47,0.00,,,-99.99,FreeWX 2.04,2013-06-14 06:40:00,
2013-06-14 00:50:00,43.5,24.1,29.97,ESE,119,7.0,12.1,46,0.00,,,-99.99,FreeWX 2.04,2013-06-14 06:50:00,
2013-06-14 01:00:00,43.3,23.9,29.97,ESE,105,8.0,13.4,46,0.00,,,-99.99,FreeWX 2.04,2013-06-14 07:00:00,
2013-06-14 01:10:00,42.4,24.1,29.97,East,100,7.0,13.0,48,0.00,,,-99.99,FreeWX 2.04,2013-06-14 07:10:00,
2013-06-14 01:21:00,42.8,23.9,29.97,ESE,103,7.0,13.4,47,0.00,,,-99.99,FreeWX 2.04,2013-06-14 07:21:00,
2013-06-14 01:31:00,42.4,23.2,29.97,ESE,109,8.0,12.1,46,0.00,,,-99.99,FreeWX 2.04,2013-06-14 07:31:00,
2013-06-14 01:41:00,41.9,23.7,29.97,ESE,106,6.0,11.6,48,0.00,,,-99.99,FreeWX 2.04,2013-06-14 07:41:00,
2013-06-14 01:51:00,41.2,23.9,29.97,East,100,6.0,11.0,50,0.00,,,-99.99,FreeWX 2.04,2013-06-14 07:51:00,
2013-06-14 02:01:00,40.8,24.1,29.97,ESE,116,6.0,13.0,51,0.00,,,-99.99,FreeWX 2.04,2013-06-14 08:01:00,
2013-06-14 02:11:00,40.5,23.7,29.97,ESE,104,6.0,11.0,51,0.00,,,-99.99,FreeWX 2.04,2013-06-14 08:11:00,
2013-06-14 02:21:00,39.7,24.1,29.97,ESE,109,6.0,10.5,53,0.00,,,-99.99,FreeWX 2.04,2013-06-14 08:21:00,
2013-06-14 02:31:00,39.4,23.7,29.97,East,100,4.0,10.1,53,0.00,,,-99.99,FreeWX 2.04,2013-06-14 08:31:00,
2013-06-14 02:41:00,39.2,23.9,29.97,ESE,106,4.0,9.6,54,0.00,,,-99.99,FreeWX 2.04,2013-06-14 08:41:00,
2013-06-14 02:51:00,38.7,23.9,29.97,East,99,5.0,11.2,55,0.00,,,-99.99,FreeWX 2.04,2013-06-14 08:51:00,
2013-06-14 03:01:00,38.7,23.9,29.97,East,95,4.0,11.0,55,0.00,,,-99.99,FreeWX 2.04,2013-06-14 09:01:00,
2013-06-14 03:11:00,38.8,23.7,29.97,ESE,116,6.0,10.5,54,0.00,,,-99.99,FreeWX 2.04,2013-06-14 09:11:00,
2013-06-14 03:21:00,38.8,22.8,29.97,ESE,119,6.0,11.0,52,0.00,,,-99.99,FreeWX 2.04,2013-06-14 09:21:00,
2013-06-14 03:31:00,38.8,22.8,29.97,ESE,122,6.0,11.2,52,0.00,,,-99.99,FreeWX 2.04,2013-06-14 09:31:00,
2013-06-14 03:41:00,39.0,22.5,29.97,ESE,121,6.0,11.0,51,0.00,,,-99.99,FreeWX 2.04,2013-06-14 09:41:00,
2013-06-14 03:51:00,38.7,22.1,29.97,ESE,119,6.0,10.5,51,0.00,,,-99.99,FreeWX 2.04,2013-06-14 09:51:00,
2013-06-14 04:01:00,38.1,22.5,29.97,ESE,109,5.0,11.0,53,0.00,,,-99.99,FreeWX 2.04,2013-06-14 10:01:00,
2013-06-14 04:11:00,38.3,22.3,29.97,ESE,116,5.0,8.3,52,0.00,,,-99.99,FreeWX 2.04,2013-06-14 10:11:00,
2013-06-14 04:21:00,37.9,21.9,29.97,ESE,112,6.0,11.0,52,0.00,,,-99.99,FreeWX 2.04,2013-06-14 10:21:00,
2013-06-14 04:31:00,37.8,22.1,29.97,ESE,118,7.0,11.2,53,0.00,,,-99.99,FreeWX 2.04,2013-06-14 10:31:00,
2013-06-14 04:41:00,37.4,21.4,29.97,ESE,112,6.0,11.2,52,0.00,,,-99.99,FreeWX 2.04,2013-06-14 10:41:00,
2013-06-14 04:51:00,37.0,21.6,30.00,SE,127,5.0,11.2,53,0.00,,,-99.99,FreeWX 2.04,2013-06-14 10:51:00,
2013-06-14 05:01:00,37.0,21.6,30.00,ESE,112,6.0,12.1,53,0.00,,,-99.99,FreeWX 2.04,2013-06-14 11:01:00,
2013-06-14 05:11:00,37.2,20.8,30.00,ESE,106,5.0,11.0,51,0.00,,,-99.99,FreeWX 2.04,2013-06-14 11:11:00,
2013-06-14 05:21:00,37.0,20.7,30.00,East,99,4.0,8.3,51,0.00,,,-99.99,FreeWX 2.04,2013-06-14 11:21:00,
2013-06-14 05:31:00,37.2,19.8,30.00,ESE,122,3.0,8.3,49,0.00,,,-99.99,FreeWX 2.04,2013-06-14 11:31:00,
2013-06-14 05:41:00,36.5,19.6,30.00,ESE,116,5.0,9.6,50,0.00,,,-99.99,FreeWX 2.04,2013-06-14 11:41:00,
2013-06-14 05:51:00,36.0,19.6,30.00,ESE,111,4.0,9.6,51,0.00,,,-99.99,FreeWX 2.04,2013-06-14 11:51:00,
2013-06-14 06:01:00,37.2,18.9,30.00,SE,137,4.0,9.2,47,0.00,,,-99.99,FreeWX 2.04,2013-06-14 12:01:00,
2013-06-14 06:11:00,39.7,16.9,30.00,SSE,161,4.0,11.6,39,0.00,,,-99.99,FreeWX 2.04,2013-06-14 12:11:00,
2013-06-14 06:21:00,40.8,15.3,30.00,SSW,193,4.0,9.6,35,0.00,,,-99.99,FreeWX 2.04,2013-06-14 12:21:00,
2013-06-14 06:31:00,41.4,14.4,30.00,SSW,199,4.0,8.7,33,0.00,,,-99.99,FreeWX 2.04,2013-06-14 12:31:00,
2013-06-14 06:41:00,40.8,13.3,30.03,SSW,211,4.0,9.6,32,0.00,,,-99.99,FreeWX 2.04,2013-06-14 12:41:00,
2013-06-14 06:51:00,40.3,14.9,30.03,SSW,212,3.0,11.2,35,0.00,,,-99.99,FreeWX 2.04,2013-06-14 12:51:00,
2013-06-14 07:01:00,39.7,16.2,30.03,SW,214,4.0,8.3,38,0.00,,,-99.99,FreeWX 2.04,2013-06-14 13:01:00,
2013-06-14 07:11:00,39.7,16.9,30.03,South,188,2.0,8.7,39,0.00,,,-99.99,FreeWX 2.04,2013-06-14 13:11:00,
2013-06-14 07:21:00,41.0,16.2,30.03,SSW,194,3.0,8.7,36,0.00,,,-99.99,FreeWX 2.04,2013-06-14 13:21:00,
2013-06-14 07:31:00,42.3,14.5,30.03,SSW,204,3.0,7.4,32,0.00,,,-99.99,FreeWX 2.04,2013-06-14 13:31:00,
2013-06-14 07:41:00,41.5,12.4,30.03,SW,235,6.0,13.9,30,0.00,,,-99.99,FreeWX 2.04,2013-06-14 13:41:00,
2013-06-14 07:51:00,41.5,13.8,30.03,SW,231,4.0,11.2,32,0.00,,,-99.99,FreeWX 2.04,2013-06-14 13:51:00,
2013-06-14 08:01:00,42.1,12.9,30.03,SW,226,4.0,11.6,30,0.00,,,-99.99,FreeWX 2.04,2013-06-14 14:01:00,
2013-06-14 08:11:00,43.5,14.2,30.03,SSW,204,3.0,9.6,30,0.00,,,-99.99,FreeWX 2.04,2013-06-14 14:11:00,
2013-06-14 08:21:00,43.5,12.6,30.03,South,187,5.0,13.0,28,0.00,,,-99.99,FreeWX 2.04,2013-06-14 14:21:00,
2013-06-14 08:31:00,44.6,13.5,30.03,South,174,5.0,9.6,28,0.00,,,-99.99,FreeWX 2.04,2013-06-14 14:31:00,
2013-06-14 08:41:00,45.7,10.9,30.03,SSW,197,4.0,11.2,24,0.00,,,-99.99,FreeWX 2.04,2013-06-14 14:41:00,
2013-06-14 08:51:00,46.4,11.7,30.03,SSW,208,4.0,11.0,24,0.00,,,-99.99,FreeWX 2.04,2013-06-14 14:51:00,
2013-06-14 09:01:00,46.8,10.0,30.03,SSW,213,4.0,9.2,22,0.00,,,-99.99,FreeWX 2.04,2013-06-14 15:01:00,
2013-06-14 09:11:00,48.2,10.0,30.06,SW,221,4.0,11.0,21,0.00,,,-99.99,FreeWX 2.04,2013-06-14 15:11:00,
2013-06-14 09:21:00,48.0,7.7,30.06,SW,225,4.0,11.2,19,0.00,,,-99.99,FreeWX 2.04,2013-06-14 15:21:00,
2013-06-14 09:31:00,47.8,9.9,30.06,SSW,195,4.0,8.3,21,0.00,,,-99.99,FreeWX 2.04,2013-06-14 15:31:00,
2013-06-14 09:41:00,48.9,10.8,30.06,SW,216,3.0,10.1,21,0.00,,,-99.99,FreeWX 2.04,2013-06-14 15:41:00,
2013-06-14 09:51:00,49.1,8.6,30.06,WSW,249,4.0,8.7,19,0.00,,,-99.99,FreeWX 2.04,2013-06-14 15:51:00,
2013-06-14 10:01:00,50.2,9.5,30.06,WSW,245,1.0,5.4,19,0.00,,,-99.99,FreeWX 2.04,2013-06-14 16:01:00,
2013-06-14 10:11:00,48.9,8.4,30.06,West,259,2.0,8.3,19,0.00,,,-99.99,FreeWX 2.04,2013-06-14 16:11:00,
2013-06-14 10:21:00,48.0,7.7,30.06,WSW,246,4.0,13.0,19,0.00,,,-99.99,FreeWX 2.04,2013-06-14 16:21:00,
2013-06-14 10:31:00,50.0,11.7,30.06,West,264,4.0,9.2,21,0.00,,,-99.99,FreeWX 2.04,2013-06-14 16:31:00,
2013-06-14 10:41:00,48.7,8.4,30.06,West,280,5.0,11.0,19,0.00,,,-99.99,FreeWX 2.04,2013-06-14 16:41:00,
2013-06-14 10:51:00,50.0,9.3,30.06,West,262,4.0,8.7,19,0.00,,,-99.99,FreeWX 2.04,2013-06-14 16:51:00,
2013-06-14 11:01:00,48.7,4.6,30.06,West,265,2.0,7.4,16,0.00,,,-99.99,FreeWX 2.04,2013-06-14 17:01:00,
2013-06-14 11:11:00,50.7,10.0,30.06,West,278,2.0,8.7,19,0.00,,,-99.99,FreeWX 2.04,2013-06-14 17:11:00,
2013-06-14 11:21:00,51.4,6.8,30.06,WSW,251,4.0,8.3,16,0.00,,,-99.99,FreeWX 2.04,2013-06-14 17:21:00,
2013-06-14 11:32:00,53.2,6.8,30.06,SSW,208,4.0,9.2,15,0.00,,,-99.99,FreeWX 2.04,2013-06-14 17:32:00,
2013-06-14 11:42:00,53.2,6.8,30.03,SW,227,5.0,10.5,15,0.00,,,-99.99,FreeWX 2.04,2013-06-14 17:42:00,
2013-06-14 11:52:00,53.6,7.2,30.06,SW,226,5.0,9.2,15,0.00,,,-99.99,FreeWX 2.04,2013-06-14 17:52:00,
2013-06-14 12:02:00,52.2,7.3,30.06,WSW,240,5.0,10.5,16,0.00,,,-99.99,FreeWX 2.04,2013-06-14 18:02:00,
2013-06-14 12:12:00,52.0,7.2,30.06,West,270,6.0,11.2,16,0.00,,,-99.99,FreeWX 2.04,2013-06-14 18:12:00,
2013-06-14 12:22:00,50.7,6.3,30.03,WSW,252,6.0,13.0,16,0.00,,,-99.99,FreeWX 2.04,2013-06-14 18:22:00,
2013-06-14 12:32:00,52.3,7.5,30.03,WNW,283,5.0,12.1,16,0.00,,,-99.99,FreeWX 2.04,2013-06-14 18:32:00,
2013-06-14 12:42:00,53.4,10.9,30.06,West,265,6.0,11.0,18,0.00,,,-99.99,FreeWX 2.04,2013-06-14 18:42:00,
2013-06-14 12:52:00,53.1,10.8,30.06,WNW,293,7.0,13.4,18,0.00,,,-99.99,FreeWX 2.04,2013-06-14 18:52:00,
2013-06-14 13:02:00,52.5,7.7,30.06,WNW,292,7.0,14.3,16,0.00,,,-99.99,FreeWX 2.04,2013-06-14 19:02:00,
2013-06-14 13:12:00,54.5,10.6,30.06,West,265,5.0,12.1,17,0.00,,,-99.99,FreeWX 2.04,2013-06-14 19:12:00,
2013-06-14 13:22:00,52.3,7.5,30.06,West,271,5.0,11.6,16,0.00,,,-99.99,FreeWX 2.04,2013-06-14 19:22:00,
2013-06-14 13:32:00,52.7,6.4,30.06,WSW,250,5.0,11.2,15,0.00,,,-99.99,FreeWX 2.04,2013-06-14 19:32:00,
2013-06-14 13:42:00,54.0,11.5,30.06,WSW,257,4.0,8.7,18,0.00,,,-99.99,FreeWX 2.04,2013-06-14 19:42:00,
2013-06-14 13:52:00,52.7,7.9,30.06,WSW,258,5.0,13.4,16,0.00,,,-99.99,FreeWX 2.04,2013-06-14 19:52:00,
2013-06-14 14:02:00,54.7,10.8,30.06,West,269,7.0,15.4,17,0.00,,,-99.99,FreeWX 2.04,2013-06-14 20:02:00,
2013-06-14 14:12:00,55.6,8.8,30.03,West,260,6.0,13.0,15,0.00,,,-99.99,FreeWX 2.04,2013-06-14 20:12:00,
2013-06-14 14:22:00,56.1,9.1,30.03,West,262,6.0,13.0,15,0.00,,,-99.99,FreeWX 2.04,2013-06-14 20:22:00,
2013-06-14 14:32:00,56.1,9.1,30.03,WSW,249,6.0,15.2,15,0.00,,,-99.99,FreeWX 2.04,2013-06-14 20:32:00,
2013-06-14 14:42:00,56.8,8.2,30.03,West,262,6.0,12.5,14,0.00,,,-99.99,FreeWX 2.04,2013-06-14 20:42:00,
2013-06-14 14:52:00,56.8,8.2,30.03,West,262,7.0,13.9,14,0.00,,,-99.99,FreeWX 2.04,2013-06-14 20:52:00,
2013-06-14 15:02:00,55.8,8.8,30.03,West,269,6.0,13.4,15,0.00,,,-99.99,FreeWX 2.04,2013-06-14 21:02:00,
2013-06-14 15:12:00,54.7,7.9,30.03,WSW,256,4.0,15.2,15,0.00,,,-99.99,FreeWX 2.04,2013-06-14 21:12:00,
2013-06-14 15:22:00,56.5,7.9,30.03,West,263,6.0,12.1,14,0.00,,,-99.99,FreeWX 2.04,2013-06-14 21:22:00,
2013-06-14 15:32:00,56.7,8.1,30.03,West,270,8.0,15.2,14,0.00,,,-99.99,FreeWX 2.04,2013-06-14 21:32:00,
2013-06-14 15:42:00,58.1,9.1,30.03,West,266,4.0,12.1,14,0.00,,,-99.99,FreeWX 2.04,2013-06-14 21:42:00,
2013-06-14 15:52:00,57.7,9.0,30.03,West,280,5.0,13.0,14,0.00,,,-99.99,FreeWX 2.04,2013-06-14 21:52:00,
2013-06-14 16:02:00,57.6,8.8,30.03,West,261,5.0,11.0,14,0.00,,,-99.99,FreeWX 2.04,2013-06-14 22:02:00,
2013-06-14 16:12:00,56.3,7.7,30.03,West,275,5.0,10.5,14,0.00,,,-99.99,FreeWX 2.04,2013-06-14 22:12:00,
2013-06-14 16:22:00,56.8,8.2,30.03,West,271,6.0,13.4,14,0.00,,,-99.99,FreeWX 2.04,2013-06-14 22:22:00,
2013-06-14 16:32:00,55.8,8.8,30.03,West,279,5.0,10.5,15,0.00,,,-99.99,FreeWX 2.04,2013-06-14 22:32:00,
2013-06-14 16:42:00,58.5,9.5,30.03,SW,230,3.0,9.6,14,0.00,,,-99.99,FreeWX 2.04,2013-06-14 22:42:00,
2013-06-14 16:52:00,58.1,9.1,30.03,WSW,249,5.0,10.1,14,0.00,,,-99.99,FreeWX 2.04,2013-06-14 22:52:00,
2013-06-14 17:02:00,58.5,9.5,30.03,WNW,285,5.0,13.4,14,0.00,,,-99.99,FreeWX 2.04,2013-06-14 23:02:00,
2013-06-14 17:12:00,58.5,9.5,30.03,West,266,5.0,11.2,14,0.00,,,-99.99,FreeWX 2.04,2013-06-14 23:12:00,
2013-06-14 17:22:00,57.0,8.2,30.03,West,274,5.0,11.0,14,0.00,,,-99.99,FreeWX 2.04,2013-06-14 23:22:00,
2013-06-14 17:32:00,58.1,9.1,30.03,WSW,249,4.0,8.3,14,0.00,,,-99.99,FreeWX 2.04,2013-06-14 23:32:00,
2013-06-14 17:42:00,56.1,4.3,30.03,SW,235,2.0,7.4,12,0.00,,,-99.99,FreeWX 2.04,2013-06-14 23:42:00,
2013-06-14 17:52:00,57.9,9.0,30.03,North,-999,0.0,4.5,14,0.00,,,-99.99,FreeWX 2.04,2013-06-14 23:52:00,
2013-06-14 18:02:00,57.7,9.0,30.03,West,276,5.0,11.2,14,0.00,,,-99.99,FreeWX 2.04,2013-06-15 00:02:00,
2013-06-14 18:12:00,58.3,9.3,30.03,West,261,5.0,11.0,14,0.00,,,-99.99,FreeWX 2.04,2013-06-15 00:12:00,
2013-06-14 18:22:00,57.6,5.4,30.03,West,260,5.0,10.5,12,0.00,,,-99.99,FreeWX 2.04,2013-06-15 00:22:00,
2013-06-14 18:32:00,57.2,5.0,30.03,West,269,6.0,13.0,12,0.00,,,-99.99,FreeWX 2.04,2013-06-15 00:32:00,
2013-06-14 18:42:00,57.6,5.4,30.03,West,275,4.0,8.7,12,0.00,,,-99.99,FreeWX 2.04,2013-06-15 00:42:00,
2013-06-14 18:52:00,57.6,5.4,30.03,WSW,256,4.0,11.0,12,0.00,,,-99.99,FreeWX 2.04,2013-06-15 00:52:00,
2013-06-14 19:02:00,57.2,5.0,30.03,West,264,4.0,10.5,12,0.00,,,-99.99,FreeWX 2.04,2013-06-15 01:02:00,
2013-06-14 19:12:00,57.6,5.4,30.03,West,265,5.0,11.0,12,0.00,,,-99.99,FreeWX 2.04,2013-06-15 01:12:00,
2013-06-14 19:22:00,57.2,5.0,30.03,West,276,3.0,7.8,12,0.00,,,-99.99,FreeWX 2.04,2013-06-15 01:22:00,
2013-06-14 19:32:00,57.4,5.2,30.03,West,269,4.0,8.7,12,0.00,,,-99.99,FreeWX 2.04,2013-06-15 01:32:00,
2013-06-14 19:42:00,57.0,5.0,30.03,West,275,3.0,7.4,12,0.00,,,-99.99,FreeWX 2.04,2013-06-15 01:42:00,
2013-06-14 19:52:00,56.8,4.8,30.03,West,279,3.0,7.8,12,0.00,,,-99.99,FreeWX 2.04,2013-06-15 01:52:00,
2013-06-14 20:02:00,57.0,5.0,30.03,West,260,2.0,7.4,12,0.00,,,-99.99,FreeWX 2.04,2013-06-15 02:02:00,
2013-06-14 20:12:00,56.3,4.5,30.03,West,276,1.0,6.3,12,0.00,,,-99.99,FreeWX 2.04,2013-06-15 02:12:00,
2013-06-14 20:22:00,53.6,3.9,30.03,North,-999,0.0,4.0,13,0.00,,,-99.99,FreeWX 2.04,2013-06-15 02:22:00,
2013-06-14 20:32:00,51.6,7.0,30.03,North,-999,0.0,0.0,16,0.00,,,-99.99,FreeWX 2.04,2013-06-15 02:32:00,
2013-06-14 20:42:00,49.1,10.9,30.03,North,-999,0.0,0.0,21,0.00,,,-99.99,FreeWX 2.04,2013-06-15 02:42:00,
2013-06-14 20:52:00,46.9,14.7,30.03,WNW,284,1.0,6.3,27,0.00,,,-99.99,FreeWX 2.04,2013-06-15 02:52:00,
2013-06-14 21:02:00,45.9,15.4,30.03,ESE,120,5.0,7.4,29,0.00,,,-99.99,FreeWX 2.04,2013-06-15 03:02:00,
2013-06-14 21:12:00,44.6,15.8,30.03,ESE,114,4.0,6.3,31,0.00,,,-99.99,FreeWX 2.04,2013-06-15 03:12:00,
2013-06-14 21:22:00,43.7,17.2,30.06,ESE,113,4.0,6.3,34,0.00,,,-99.99,FreeWX 2.04,2013-06-15 03:22:00,
2013-06-14 21:32:00,42.8,16.3,30.06,ESE,117,4.0,6.9,34,0.00,,,-99.99,FreeWX 2.04,2013-06-15 03:32:00,
2013-06-14 21:42:00,42.3,16.0,30.06,ESE,108,4.0,7.8,34,0.00,,,-99.99,FreeWX 2.04,2013-06-15 03:42:00,
2013-06-14 21:52:00,41.9,16.3,30.06,ESE,102,4.0,7.4,35,0.00,,,-99.99,FreeWX 2.04,2013-06-15 03:52:00,
2013-06-14 22:02:00,41.0,16.7,30.06,East,91,3.0,7.4,37,0.00,,,-99.99,FreeWX 2.04,2013-06-15 04:02:00,
2013-06-14 22:12:00,41.2,15.6,30.06,East,94,4.0,10.1,35,0.00,,,-99.99,FreeWX 2.04,2013-06-15 04:12:00,
2013-06-14 22:22:00,40.8,15.3,30.06,East,92,3.0,6.9,35,0.00,,,-99.99,FreeWX 2.04,2013-06-15 04:22:00,
2013-06-14 22:32:00,41.7,13.3,30.06,East,101,5.0,10.1,31,0.00,,,-99.99,FreeWX 2.04,2013-06-15 04:32:00,
2013-06-14 22:42:00,41.7,13.3,30.06,ESE,108,4.0,9.6,31,0.00,,,-99.99,FreeWX 2.04,2013-06-15 04:42:00,
2013-06-14 22:52:00,40.6,13.1,30.06,East,94,4.0,10.1,32,0.00,,,-99.99,FreeWX 2.04,2013-06-15 04:52:00,
2013-06-14 23:02:00,41.0,12.7,30.06,ESE,102,4.0,9.6,31,0.00,,,-99.99,FreeWX 2.04,2013-06-15 05:02:00,
2013-06-14 23:12:00,39.4,13.5,30.06,East,94,4.0,9.6,34,0.00,,,-99.99,FreeWX 2.04,2013-06-15 05:12:00,
2013-06-14 23:22:00,40.1,12.6,30.06,East,99,4.0,9.6,32,0.00,,,-99.99,FreeWX 2.04,2013-06-15 05:22:00,
2013-06-14 23:33:00,38.8,13.6,30.06,East,86,4.0,9.2,35,0.00,,,-99.99,FreeWX 2.04,2013-06-15 05:33:00,
2013-06-14 23:43:00,38.8,12.2,30.06,East,91,4.0,7.8,33,0.00,,,-99.99,FreeWX 2.04,2013-06-15 05:43:00,
2013-06-14 23:53:00,39.0,12.4,30.06,East,96,4.0,10.1,33,0.00,,,-99.99,FreeWX 2.04,2013-06-15 05:53:00,